sensor_id;sensor_type;location;lat;lon;timestamp;pressure;altitude;pressure_sealevel;temperature;humidity
44079;BME280;29744;49.078;12.878;2023-09-19T00:03:21;96057.81;;;19.48;45.21
44079;BME280;29744;49.078;12.878;2023-09-19T00:08:23;96057.81;;;19.48;44.82
44079;BME280;29744;49.078;12.878;2023-09-19T00:13:23;96059.75;;;19.47;45.45
44079;BME280;29744;49.078;12.878;2023-09-19T00:18:25;96066.75;;;19.48;44.93
44079;BME280;29744;49.078;12.878;2023-09-19T00:23:29;96064.03;;;19.48;44.86
44079;BME280;29744;49.078;12.878;2023-09-19T00:28:31;96051.97;;;19.46;44.92
44079;BME280;29744;49.078;12.878;2023-09-19T00:33:31;96056.25;;;19.47;45.22
44079;BME280;29744;49.078;12.878;2023-09-19T00:38:32;96040.72;;;19.47;44.98
44079;BME280;29744;49.078;12.878;2023-09-19T00:43:32;96048.09;;;19.47;44.89
44079;BME280;29744;49.078;12.878;2023-09-19T00:48:41;96058.97;;;19.47;45.05
44079;BME280;29744;49.078;12.878;2023-09-19T00:53:43;96054.31;;;19.47;44.96
44079;BME280;29744;49.078;12.878;2023-09-19T00:58:47;96058.59;;;19.48;44.65
44079;BME280;29744;49.078;12.878;2023-09-19T01:03:47;96072.56;;;19.47;44.86
44079;BME280;29744;49.078;12.878;2023-09-19T01:08:47;96067.91;;;19.47;45.17
44079;BME280;29744;49.078;12.878;2023-09-19T01:13:56;96069.06;;;19.46;44.71
44079;BME280;29744;49.078;12.878;2023-09-19T01:29:59;96055.41;;;19.43;44.98
44079;BME280;29744;49.078;12.878;2023-09-19T01:35:00;96057.75;;;19.44;44.91
44079;BME280;29744;49.078;12.878;2023-09-19T01:40:08;96066.34;;;19.46;44.93
44079;BME280;29744;49.078;12.878;2023-09-19T01:50:52;96058.91;;;19.43;44.68
44079;BME280;29744;49.078;12.878;2023-09-19T01:55:55;96058.56;;;19.45;45.03
44079;BME280;29744;49.078;12.878;2023-09-19T02:00:58;96066.72;;;19.45;45.28
44079;BME280;29744;49.078;12.878;2023-09-19T02:06:00;96072.94;;;19.45;45.02
44079;BME280;29744;49.078;12.878;2023-09-19T02:11:00;96067.50;;;19.45;44.96
44079;BME280;29744;49.078;12.878;2023-09-19T02:16:01;96076.81;;;19.44;45.09
44079;BME280;29744;49.078;12.878;2023-09-19T02:21:04;96066.72;;;19.45;44.71
44079;BME280;29744;49.078;12.878;2023-09-19T02:26:06;96063.19;;;19.44;44.69
44079;BME280;29744;49.078;12.878;2023-09-19T02:31:07;96065.13;;;19.44;45.38
44079;BME280;29744;49.078;12.878;2023-09-19T02:36:07;96064.00;;;19.45;44.88
44079;BME280;29744;49.078;12.878;2023-09-19T02:41:08;96068.63;;;19.44;44.99
44079;BME280;29744;49.078;12.878;2023-09-19T02:46:09;96073.28;;;19.44;44.81
44079;BME280;29744;49.078;12.878;2023-09-19T02:51:10;96064.78;;;19.45;44.84
44079;BME280;29744;49.078;12.878;2023-09-19T02:56:10;96070.56;;;19.44;45.02
44079;BME280;29744;49.078;12.878;2023-09-19T03:01:13;96081.44;;;19.44;45.02
44079;BME280;29744;49.078;12.878;2023-09-19T03:06:14;96082.25;;;19.44;45.00
44079;BME280;29744;49.078;12.878;2023-09-19T03:11:15;96078.75;;;19.44;45.38
44079;BME280;29744;49.078;12.878;2023-09-19T03:16:19;96079.53;;;19.44;45.07
44079;BME280;29744;49.078;12.878;2023-09-19T03:21:21;96070.56;;;19.44;44.95
44079;BME280;29744;49.078;12.878;2023-09-19T03:26:22;96078.75;;;19.44;45.02
44079;BME280;29744;49.078;12.878;2023-09-19T03:31:22;96070.16;;;19.42;44.98
44079;BME280;29744;49.078;12.878;2023-09-19T03:36:22;96078.31;;;19.42;45.07
44079;BME280;29744;49.078;12.878;2023-09-19T03:41:22;96084.19;;;19.44;44.91
44079;BME280;29744;49.078;12.878;2023-09-19T03:46:23;96081.81;;;19.42;45.15
44079;BME280;29744;49.078;12.878;2023-09-19T03:51:23;96082.59;;;19.43;45.10
44079;BME280;29744;49.078;12.878;2023-09-19T03:56:23;96077.16;;;19.43;44.96
44079;BME280;29744;49.078;12.878;2023-09-19T04:01:24;96082.59;;;19.43;45.05
44079;BME280;29744;49.078;12.878;2023-09-19T04:06:24;96091.91;;;19.42;44.82
44079;BME280;29744;49.078;12.878;2023-09-19T04:11:25;96094.25;;;19.43;45.16
44079;BME280;29744;49.078;12.878;2023-09-19T04:16:25;96096.19;;;19.43;45.02
44079;BME280;29744;49.078;12.878;2023-09-19T04:21:25;96111.72;;;19.42;45.12
44079;BME280;29744;49.078;12.878;2023-09-19T04:26:26;96113.66;;;19.42;44.95
44079;BME280;29744;49.078;12.878;2023-09-19T04:31:27;96108.22;;;19.42;44.95
44079;BME280;29744;49.078;12.878;2023-09-19T04:36:27;96114.44;;;19.42;45.09
44079;BME280;29744;49.078;12.878;2023-09-19T04:41:28;96122.59;;;19.42;45.05
44079;BME280;29744;49.078;12.878;2023-09-19T04:46:28;96113.66;;;19.42;45.05
44079;BME280;29744;49.078;12.878;2023-09-19T04:51:28;96118.31;;;19.41;45.14
44079;BME280;29744;49.078;12.878;2023-09-19T04:56:34;96121.81;;;19.42;45.07
44079;BME280;29744;49.078;12.878;2023-09-19T05:01:34;96129.19;;;19.41;44.89
44079;BME280;29744;49.078;12.878;2023-09-19T05:06:34;96129.56;;;19.40;45.04
44079;BME280;29744;49.078;12.878;2023-09-19T05:11:35;96139.28;;;19.41;45.05
44079;BME280;29744;49.078;12.878;2023-09-19T05:16:38;96134.63;;;19.41;44.78
44079;BME280;29744;49.078;12.878;2023-09-19T05:21:38;96152.88;;;19.41;44.95
44079;BME280;29744;49.078;12.878;2023-09-19T05:26:41;96149.38;;;19.40;44.87
44079;BME280;29744;49.078;12.878;2023-09-19T05:31:44;96162.97;;;19.40;44.81
44079;BME280;29744;49.078;12.878;2023-09-19T05:36:45;96166.47;;;19.41;44.86
44079;BME280;29744;49.078;12.878;2023-09-19T05:41:45;96171.13;;;19.40;44.70
44079;BME280;29744;49.078;12.878;2023-09-19T05:46:47;96171.91;;;19.41;44.92
44079;BME280;29744;49.078;12.878;2023-09-19T05:51:48;96177.34;;;19.41;44.60
44079;BME280;29744;49.078;12.878;2023-09-19T05:56:48;96182.00;;;19.40;45.02
44079;BME280;29744;49.078;12.878;2023-09-19T06:01:48;96192.88;;;19.40;45.13
44079;BME280;29744;49.078;12.878;2023-09-19T06:06:49;96195.59;;;19.40;44.97
44079;BME280;29744;49.078;12.878;2023-09-19T06:11:49;96202.97;;;19.40;45.05
44079;BME280;29744;49.078;12.878;2023-09-19T06:16:50;96208.41;;;19.40;44.66
44079;BME280;29744;49.078;12.878;2023-09-19T06:21:50;96219.28;;;19.40;45.05
44079;BME280;29744;49.078;12.878;2023-09-19T06:26:52;96219.28;;;19.40;45.10
44079;BME280;29744;49.078;12.878;2023-09-19T06:31:52;96220.44;;;19.39;45.39
44079;BME280;29744;49.078;12.878;2023-09-19T06:36:53;96226.31;;;19.41;44.83
44079;BME280;29744;49.078;12.878;2023-09-19T06:41:55;96233.69;;;19.40;45.11
44079;BME280;29744;49.078;12.878;2023-09-19T06:46:55;96241.03;;;19.40;45.35
44079;BME280;29744;49.078;12.878;2023-09-19T06:51:56;96249.19;;;19.40;44.81
44079;BME280;29744;49.078;12.878;2023-09-19T06:56:57;96246.50;;;19.40;44.91
44079;BME280;29744;49.078;12.878;2023-09-19T07:02:00;96262.81;;;19.40;45.37
44079;BME280;29744;49.078;12.878;2023-09-19T07:07:00;96262.81;;;19.40;45.26
44079;BME280;29744;49.078;12.878;2023-09-19T07:12:01;96281.47;;;19.41;45.03
44079;BME280;29744;49.078;12.878;2023-09-19T07:17:01;96285.34;;;19.40;45.02
44079;BME280;29744;49.078;12.878;2023-09-19T07:22:01;96281.47;;;19.41;45.08
44079;BME280;29744;49.078;12.878;2023-09-19T07:27:02;96293.13;;;19.42;45.27
44079;BME280;29744;49.078;12.878;2023-09-19T07:32:03;96304.03;;;19.42;45.17
44079;BME280;29744;49.078;12.878;2023-09-19T07:37:03;96307.53;;;19.42;45.21
44079;BME280;29744;49.078;12.878;2023-09-19T07:42:04;96314.09;;;19.41;45.09
44079;BME280;29744;49.078;12.878;2023-09-19T07:47:04;96312.19;;;19.42;45.51
44079;BME280;29744;49.078;12.878;2023-09-19T07:52:05;96320.34;;;19.42;45.22
44079;BME280;29744;49.078;12.878;2023-09-19T07:57:05;96319.56;;;19.41;45.04
44079;BME280;29744;49.078;12.878;2023-09-19T08:02:05;96312.19;;;19.42;44.86
44079;BME280;29744;49.078;12.878;2023-09-19T08:07:08;96321.91;;;19.43;45.03
44079;BME280;29744;49.078;12.878;2023-09-19T08:12:09;96319.19;;;19.43;45.18
44079;BME280;29744;49.078;12.878;2023-09-19T08:17:10;96321.91;;;19.43;45.21
44079;BME280;29744;49.078;12.878;2023-09-19T08:22:10;96321.13;;;19.42;45.25
44079;BME280;29744;49.078;12.878;2023-09-19T08:27:11;96328.91;;;19.44;45.39
44079;BME280;29744;49.078;12.878;2023-09-19T08:32:12;96334.38;;;19.44;44.84
44079;BME280;29744;49.078;12.878;2023-09-19T08:37:12;96325.41;;;19.43;44.88
44079;BME280;29744;49.078;12.878;2023-09-19T08:42:13;96327.00;;;19.44;45.43
44079;BME280;29744;49.078;12.878;2023-09-19T08:47:19;96333.22;;;19.45;44.76
44079;BME280;29744;49.078;12.878;2023-09-19T08:52:37;96321.91;;;19.43;45.14
44079;BME280;29744;49.078;12.878;2023-09-19T08:57:41;96339.81;;;19.44;45.29
44079;BME280;29744;49.078;12.878;2023-09-19T09:02:43;96342.53;;;19.44;44.88
44079;BME280;29744;49.078;12.878;2023-09-19T09:07:45;96350.69;;;19.44;45.00
44079;BME280;29744;49.078;12.878;2023-09-19T09:12:45;96362.34;;;19.44;45.20
44079;BME280;29744;49.078;12.878;2023-09-19T09:17:50;96363.91;;;19.45;44.93
44079;BME280;29744;49.078;12.878;2023-09-19T09:22:55;96354.63;;;19.46;45.16
44079;BME280;29744;49.078;12.878;2023-09-19T09:28:00;96357.69;;;19.45;45.03
44079;BME280;29744;49.078;12.878;2023-09-19T09:33:12;96355.34;;;19.43;45.17
44079;BME280;29744;49.078;12.878;2023-09-19T09:38:13;96345.66;;;19.46;45.15
44079;BME280;29744;49.078;12.878;2023-09-19T09:43:25;96345.66;;;19.46;45.10
44079;BME280;29744;49.078;12.878;2023-09-19T09:48:27;96346.47;;;19.46;45.25
44079;BME280;29744;49.078;12.878;2023-09-19T09:53:32;96341.81;;;19.47;45.45
44079;BME280;29744;49.078;12.878;2023-09-19T09:58:51;96337.16;;;19.47;44.99
44079;BME280;29744;49.078;12.878;2023-09-19T10:03:58;96352.69;;;19.47;45.11
44079;BME280;29744;49.078;12.878;2023-09-19T10:09:05;96355.03;;;19.48;45.27
44079;BME280;29744;49.078;12.878;2023-09-19T10:14:18;96356.97;;;19.48;45.06
44079;BME280;29744;49.078;12.878;2023-09-19T10:19:24;96363.78;;;19.38;45.11
44079;BME280;29744;49.078;12.878;2023-09-19T10:24:30;96368.22;;;19.46;45.05
44079;BME280;29744;49.078;12.878;2023-09-19T10:29:34;96377.16;;;19.47;44.89
44079;BME280;29744;49.078;12.878;2023-09-19T10:34:36;96377.94;;;19.47;44.96
44079;BME280;29744;49.078;12.878;2023-09-19T10:39:46;96381.47;;;19.48;45.08
44079;BME280;29744;49.078;12.878;2023-09-19T10:44:51;96388.81;;;19.47;45.15
44079;BME280;29744;49.078;12.878;2023-09-19T10:49:53;96392.91;;;19.38;45.16
44079;BME280;29744;49.078;12.878;2023-09-19T10:54:55;96388.41;;;19.45;45.25
44079;BME280;29744;49.078;12.878;2023-09-19T11:00:08;96389.97;;;19.46;44.87
44079;BME280;29744;49.078;12.878;2023-09-19T11:05:27;96389.97;;;19.46;45.38
44079;BME280;29744;49.078;12.878;2023-09-19T11:10:48;96393.06;;;19.45;45.16
44079;BME280;29744;49.078;12.878;2023-09-19T11:16:10;96393.06;;;19.45;45.00
44079;BME280;29744;49.078;12.878;2023-09-19T11:26:41;96397.00;;;19.47;45.34
44079;BME280;29744;49.078;12.878;2023-09-19T11:31:47;96389.63;;;19.48;45.18
44079;BME280;29744;49.078;12.878;2023-09-19T11:36:49;96386.91;;;19.48;45.35
44079;BME280;29744;49.078;12.878;2023-09-19T11:41:50;96388.47;;;19.49;45.01
44079;BME280;29744;49.078;12.878;2023-09-19T11:46:56;96384.97;;;19.48;44.99
44079;BME280;29744;49.078;12.878;2023-09-19T11:52:00;96380.75;;;19.51;45.23
44079;BME280;29744;49.078;12.878;2023-09-19T11:57:09;96378.03;;;19.51;45.17
44079;BME280;29744;49.078;12.878;2023-09-19T12:02:18;96380.75;;;19.51;44.98
44079;BME280;29744;49.078;12.878;2023-09-19T12:07:28;96378.81;;;19.51;44.93
44079;BME280;29744;49.078;12.878;2023-09-19T12:12:28;96380.75;;;19.51;45.50
44079;BME280;29744;49.078;12.878;2023-09-19T12:17:36;96380.38;;;19.52;45.25
44079;BME280;29744;49.078;12.878;2023-09-19T12:22:44;96374.50;;;19.50;45.10
44079;BME280;29744;49.078;12.878;2023-09-19T12:27:50;96372.59;;;19.51;45.42
44079;BME280;29744;49.078;12.878;2023-09-19T12:32:53;96369.50;;;19.52;45.04
44079;BME280;29744;49.078;12.878;2023-09-19T12:37:56;96371.44;;;19.52;45.32
44079;BME280;29744;49.078;12.878;2023-09-19T12:42:57;96364.06;;;19.52;44.86
44079;BME280;29744;49.078;12.878;2023-09-19T12:48:24;96351.19;;;19.49;45.16
44079;BME280;29744;49.078;12.878;2023-09-19T12:53:36;96351.63;;;19.51;45.17
44079;BME280;29744;49.078;12.878;2023-09-19T12:58:53;96360.69;;;19.40;45.38
44079;BME280;29744;49.078;12.878;2023-09-19T13:04:23;96357.69;;;19.45;45.16
44079;BME280;29744;49.078;12.878;2023-09-19T13:09:28;96358.56;;;19.49;45.45
44079;BME280;29744;49.078;12.878;2023-09-19T13:14:34;96349.59;;;19.48;45.19
44079;BME280;29744;49.078;12.878;2023-09-19T13:19:45;96353.91;;;19.49;45.35
44079;BME280;29744;49.078;12.878;2023-09-19T13:24:57;96367.50;;;19.49;45.30
44079;BME280;29744;49.078;12.878;2023-09-19T13:29:59;96356.25;;;19.51;44.88
44079;BME280;29744;49.078;12.878;2023-09-19T13:34:59;96351.63;;;19.51;45.00
44079;BME280;29744;49.078;12.878;2023-09-19T13:39:59;96346.16;;;19.51;45.38
44079;BME280;29744;49.078;12.878;2023-09-19T13:45:00;96337.59;;;19.49;45.23
44079;BME280;29744;49.078;12.878;2023-09-19T13:50:02;96342.66;;;19.51;45.04
44079;BME280;29744;49.078;12.878;2023-09-19T13:55:04;96339.16;;;19.50;44.77
44079;BME280;29744;49.078;12.878;2023-09-19T14:00:07;96343.44;;;19.51;45.56
44079;BME280;29744;49.078;12.878;2023-09-19T14:05:10;96339.94;;;19.51;45.20
44079;BME280;29744;49.078;12.878;2023-09-19T14:10:12;96335.28;;;19.51;45.17
44079;BME280;29744;49.078;12.878;2023-09-19T14:15:13;96334.50;;;19.51;45.52
44079;BME280;29744;49.078;12.878;2023-09-19T14:20:13;96338.00;;;19.51;45.09
44079;BME280;29744;49.078;12.878;2023-09-19T14:25:15;96336.06;;;19.52;45.19
44079;BME280;29744;49.078;12.878;2023-09-19T14:30:16;96319.75;;;19.52;44.81
44079;BME280;29744;49.078;12.878;2023-09-19T14:35:16;96331.78;;;19.51;45.38
44079;BME280;29744;49.078;12.878;2023-09-19T14:40:17;96327.13;;;19.51;44.77
44079;BME280;29744;49.078;12.878;2023-09-19T14:45:17;96326.34;;;19.51;44.97
44079;BME280;29744;49.078;12.878;2023-09-19T14:50:18;96327.13;;;19.51;45.23
44079;BME280;29744;49.078;12.878;2023-09-19T14:55:18;96331.44;;;19.52;45.29
44079;BME280;29744;49.078;12.878;2023-09-19T15:00:20;96327.91;;;19.52;45.36
44079;BME280;29744;49.078;12.878;2023-09-19T15:05:23;96324.41;;;19.51;45.38
44079;BME280;29744;49.078;12.878;2023-09-19T15:10:24;96327.13;;;19.51;45.31
44079;BME280;29744;49.078;12.878;2023-09-19T15:15:24;96325.19;;;19.52;45.17
44079;BME280;29744;49.078;12.878;2023-09-19T15:20:24;96327.50;;;19.50;45.43
44079;BME280;29744;49.078;12.878;2023-09-19T15:25:26;96320.53;;;19.52;45.25
44079;BME280;29744;49.078;12.878;2023-09-19T15:30:27;96310.03;;;19.51;45.18
44079;BME280;29744;49.078;12.878;2023-09-19T15:35:27;96321.69;;;19.51;44.80
44079;BME280;29744;49.078;12.878;2023-09-19T15:40:28;96324.41;;;19.51;45.15
44079;BME280;29744;49.078;12.878;2023-09-19T15:45:29;96321.69;;;19.51;45.28
44079;BME280;29744;49.078;12.878;2023-09-19T15:50:29;96324.41;;;19.51;45.22
44079;BME280;29744;49.078;12.878;2023-09-19T15:55:29;96317.03;;;19.52;44.93
44079;BME280;29744;49.078;12.878;2023-09-19T16:00:30;96321.69;;;19.51;45.11
44079;BME280;29744;49.078;12.878;2023-09-19T16:05:37;96324.78;;;19.50;45.18
44079;BME280;29744;49.078;12.878;2023-09-19T16:10:37;96324.41;;;19.51;45.15
44079;BME280;29744;49.078;12.878;2023-09-19T16:15:42;96322.84;;;19.50;44.84
44079;BME280;29744;49.078;12.878;2023-09-19T16:20:44;96331.78;;;19.51;45.00
44079;BME280;29744;49.078;12.878;2023-09-19T16:25:44;96327.50;;;19.50;45.23
44079;BME280;29744;49.078;12.878;2023-09-19T16:30:45;96326.34;;;19.51;45.37
44079;BME280;29744;49.078;12.878;2023-09-19T16:35:46;96315.81;;;19.49;45.27
44079;BME280;29744;49.078;12.878;2023-09-19T16:40:57;96318.53;;;19.49;45.43
44079;BME280;29744;49.078;12.878;2023-09-19T16:45:59;96326.72;;;19.49;45.25
44079;BME280;29744;49.078;12.878;2023-09-19T16:51:05;96326.72;;;19.49;45.52
44079;BME280;29744;49.078;12.878;2023-09-19T16:56:09;96329.41;;;19.49;45.37
44079;BME280;29744;49.078;12.878;2023-09-19T17:01:10;96325.91;;;19.49;45.56
44079;BME280;29744;49.078;12.878;2023-09-19T17:06:12;96331.34;;;19.49;45.39
44079;BME280;29744;49.078;12.878;2023-09-19T17:11:15;96333.28;;;19.48;45.39
44079;BME280;29744;49.078;12.878;2023-09-19T17:16:17;96336.00;;;19.48;45.69
44079;BME280;29744;49.078;12.878;2023-09-19T17:21:25;96342.22;;;19.49;45.43
44079;BME280;29744;49.078;12.878;2023-09-19T17:26:26;96343.38;;;19.48;45.49
44079;BME280;29744;49.078;12.878;2023-09-19T17:31:28;96339.09;;;19.47;44.98
44079;BME280;29744;49.078;12.878;2023-09-19T17:36:29;96344.53;;;19.47;45.35
44079;BME280;29744;49.078;12.878;2023-09-19T17:41:32;96349.19;;;19.46;45.39
44079;BME280;29744;49.078;12.878;2023-09-19T17:46:32;96359.28;;;19.46;45.71
44079;BME280;29744;49.078;12.878;2023-09-19T17:51:34;96360.06;;;19.46;45.37
44079;BME280;29744;49.078;12.878;2023-09-19T17:56:35;96361.19;;;19.45;45.27
44079;BME280;29744;49.078;12.878;2023-09-19T18:01:35;96362.00;;;19.46;45.28
44079;BME280;29744;49.078;12.878;2023-09-19T18:06:37;96369.34;;;19.45;45.28
44079;BME280;29744;49.078;12.878;2023-09-19T18:11:38;96367.78;;;19.44;45.42
44079;BME280;29744;49.078;12.878;2023-09-19T18:16:38;96374.00;;;19.45;45.42
44079;BME280;29744;49.078;12.878;2023-09-19T18:21:39;96375.94;;;19.44;45.72
44079;BME280;29744;49.078;12.878;2023-09-19T18:26:40;96381.38;;;19.44;45.35
44079;BME280;29744;49.078;12.878;2023-09-19T18:31:42;96381.75;;;19.43;45.47
44079;BME280;29744;49.078;12.878;2023-09-19T18:36:42;96394.19;;;19.44;44.96
44079;BME280;29744;49.078;12.878;2023-09-19T18:41:42;96392.63;;;19.43;45.28
44079;BME280;29744;49.078;12.878;2023-09-19T18:46:44;96395.34;;;19.43;45.41
44079;BME280;29744;49.078;12.878;2023-09-19T18:51:45;96404.28;;;19.43;45.35
44079;BME280;29744;49.078;12.878;2023-09-19T18:56:45;96410.09;;;19.42;45.29
44079;BME280;29744;49.078;12.878;2023-09-19T19:01:46;96407.34;;;19.42;45.31
44079;BME280;29744;49.078;12.878;2023-09-19T19:06:46;96409.28;;;19.41;44.98
44079;BME280;29744;49.078;12.878;2023-09-19T19:11:47;96402.28;;;19.40;45.13
44079;BME280;29744;49.078;12.878;2023-09-19T19:16:48;96407.72;;;19.40;44.87
44079;BME280;29744;49.078;12.878;2023-09-19T19:21:50;96411.22;;;19.41;45.24
44079;BME280;29744;49.078;12.878;2023-09-19T19:26:50;96413.94;;;19.41;45.02
44079;BME280;29744;49.078;12.878;2023-09-19T19:31:50;96415.88;;;19.40;45.42
44079;BME280;29744;49.078;12.878;2023-09-19T19:36:52;96413.94;;;19.41;45.30
44079;BME280;29744;49.078;12.878;2023-09-19T19:41:53;96414.28;;;19.39;44.99
44079;BME280;29744;49.078;12.878;2023-09-19T19:46:53;96417.00;;;19.39;45.10
44079;BME280;29744;49.078;12.878;2023-09-19T19:51:53;96418.94;;;19.39;45.19
44079;BME280;29744;49.078;12.878;2023-09-19T19:56:54;96422.47;;;19.39;45.69
44079;BME280;29744;49.078;12.878;2023-09-19T20:01:54;96428.25;;;19.38;45.18
44079;BME280;29744;49.078;12.878;2023-09-19T20:06:55;96434.47;;;19.38;45.20
44079;BME280;29744;49.078;12.878;2023-09-19T20:11:56;96436.41;;;19.38;45.27
44079;BME280;29744;49.078;12.878;2023-09-19T20:16:56;96430.97;;;19.38;45.33
44079;BME280;29744;49.078;12.878;2023-09-19T20:22:00;96439.13;;;19.38;45.26
44079;BME280;29744;49.078;12.878;2023-09-19T20:27:05;96439.47;;;19.36;45.21
44079;BME280;29744;49.078;12.878;2023-09-19T20:32:06;96447.28;;;19.38;45.55
44079;BME280;29744;49.078;12.878;2023-09-19T20:37:09;96444.91;;;19.36;45.37
44079;BME280;29744;49.078;12.878;2023-09-19T20:42:09;96436.75;;;19.36;44.87
44079;BME280;29744;49.078;12.878;2023-09-19T20:47:09;96444.13;;;19.36;45.13
44079;BME280;29744;49.078;12.878;2023-09-19T20:52:10;96441.41;;;19.36;45.30
44079;BME280;29744;49.078;12.878;2023-09-19T20:57:11;96438.69;;;19.36;45.11
44079;BME280;29744;49.078;12.878;2023-09-19T21:02:11;96437.13;;;19.35;45.32
44079;BME280;29744;49.078;12.878;2023-09-19T21:07:11;96448.78;;;19.35;44.88
44079;BME280;29744;49.078;12.878;2023-09-19T21:12:12;96449.56;;;19.36;44.98
44079;BME280;29744;49.078;12.878;2023-09-19T21:17:14;96454.22;;;19.35;44.80
44079;BME280;29744;49.078;12.878;2023-09-19T21:22:14;96453.44;;;19.35;45.18
44079;BME280;29744;49.078;12.878;2023-09-19T21:27:14;96452.66;;;19.34;45.20
44079;BME280;29744;49.078;12.878;2023-09-19T21:32:15;96443.69;;;19.34;44.79
44079;BME280;29744;49.078;12.878;2023-09-19T21:37:15;96448.34;;;19.33;44.76
44079;BME280;29744;49.078;12.878;2023-09-19T21:42:17;96456.50;;;19.33;44.80
44079;BME280;29744;49.078;12.878;2023-09-19T21:47:17;96454.94;;;19.32;45.22
44079;BME280;29744;49.078;12.878;2023-09-19T21:52:18;96453.00;;;19.33;45.30
44079;BME280;29744;49.078;12.878;2023-09-19T21:57:19;96448.66;;;19.32;44.91
44079;BME280;29744;49.078;12.878;2023-09-19T22:02:19;96447.88;;;19.31;44.79
44079;BME280;29744;49.078;12.878;2023-09-19T22:07:19;96445.94;;;19.32;45.10
44079;BME280;29744;49.078;12.878;2023-09-19T22:12:20;96445.94;;;19.32;44.70
44079;BME280;29744;49.078;12.878;2023-09-19T22:17:20;96442.44;;;19.31;44.91
44079;BME280;29744;49.078;12.878;2023-09-19T22:22:21;96439.72;;;19.31;45.14
44079;BME280;29744;49.078;12.878;2023-09-19T22:27:23;96440.50;;;19.32;45.00
44079;BME280;29744;49.078;12.878;2023-09-19T22:32:23;96443.22;;;19.32;45.16
44079;BME280;29744;49.078;12.878;2023-09-19T22:37:23;96441.66;;;19.31;45.17
44079;BME280;29744;49.078;12.878;2023-09-19T22:42:25;96437.00;;;19.31;45.14
44079;BME280;29744;49.078;12.878;2023-09-19T22:47:26;96443.22;;;19.32;45.18
44079;BME280;29744;49.078;12.878;2023-09-19T22:52:27;96444.38;;;19.31;44.71
44079;BME280;29744;49.078;12.878;2023-09-19T22:57:29;96447.09;;;19.31;45.33
44079;BME280;29744;49.078;12.878;2023-09-19T23:02:29;96442.81;;;19.30;45.04
44079;BME280;29744;49.078;12.878;2023-09-19T23:07:30;96438.50;;;19.28;44.80
44079;BME280;29744;49.078;12.878;2023-09-19T23:12:31;96442.81;;;19.30;44.88
44079;BME280;29744;49.078;12.878;2023-09-19T23:17:32;96435.78;;;19.28;44.97
44079;BME280;29744;49.078;12.878;2023-09-19T23:22:36;96438.50;;;19.28;45.04
44079;BME280;29744;49.078;12.878;2023-09-19T23:27:36;96434.22;;;19.27;45.03
44079;BME280;29744;49.078;12.878;2023-09-19T23:32:37;96438.50;;;19.28;45.08
44079;BME280;29744;49.078;12.878;2023-09-19T23:37:37;96445.09;;;19.27;44.72
44079;BME280;29744;49.078;12.878;2023-09-19T23:42:37;96439.66;;;19.27;44.98
44079;BME280;29744;49.078;12.878;2023-09-19T23:47:40;96447.00;;;19.27;44.94
44079;BME280;29744;49.078;12.878;2023-09-19T23:52:41;96438.84;;;19.27;44.98
44079;BME280;29744;49.078;12.878;2023-09-19T23:57:42;96438.84;;;19.27;45.27
